Hlavní strana
METAR-TAF:

METAR-TAF

Letiště :

Bamako, Mali

zeměpisná šířka: 12-32N, zeměpisná délka: 007-57W, výška: 380 m

Aktuální stav počasí

Zpráva byla vytvořena před 28 minutami, v 01:30 UTC
Severovýchodní vítr 12 kt
Teplota 28°C
Vlhkost vzduchu 14%
Tlak 1014 hPa
Viditelnost 10 km a více
Žádná oblačnost pod 1500 m, nevyskytují se cumulonimby.

METAR: GABS 260130Z 05012KT CAVOK 28/M02 Q1014 NOSIG

Čas: 01:58 (01:58 UTC)

Předpověď počasí

Zpráva byla vytvořena před 2 hodinami a 58 minutami, v 23:00 UTC
Předpověď platná od 26 v 00 UTC do 27 v 06 UTC
Severovýchodní vítr 10 kt
Viditelnost 10 km a více
Žádná oblačnost pod 1500 m, nevyskytují se cumulonimby.
Pravděpodobnost 40% :
Dočasný
od 26 v 06 UTC do 26 v 15 UTC
Viditelnost: 4000 m
rozsáhlý prach

TAF: GABS 252300Z 2600/2706 04010KT CAVOK PROB40 TEMPO 2606/2615 4000 DU

Stav a předpovědi počasí z více než 4 000 letišť (zprávy METAR a TAF).

Červené a žluté tečky na mapě představují dostupné meteorologické stanice.

Když kurzor umístíte na tečku, zobrazí se název stanice.

Pak kliknutím zobrazíte stav a předpověď počasí.

Chcete-li změnit mapu, kliknutím na zelené tlačítko se znaménkem +mapu přiblížíte, kliknutím na zelené tlačítko se znaménkem – mapu oddálíte a kliknutím na zelené šipky přejdete na sousední mapy.


METAR-TAF: